createdAt,value
2016-02-04T11:07:03.164Z,80
2016-02-04T11:08:03.401Z,68
2016-02-04T11:09:03.247Z,160
2016-02-04T11:10:04.000Z,48
2016-02-04T11:11:03.909Z,96
2016-02-04T11:12:03.113Z,72
2016-02-04T11:13:03.022Z,88
2016-02-04T11:14:02.978Z,92
2016-02-04T11:15:02.965Z,196
2016-02-04T11:16:02.875Z,188
2016-02-04T11:17:02.799Z,80
2016-02-04T11:18:02.755Z,64
2016-02-04T11:19:02.728Z,56
2016-02-04T11:20:02.605Z,56
2016-02-04T11:21:02.593Z,108
2016-02-04T11:22:02.501Z,52
2016-02-04T11:23:02.535Z,132
2016-02-04T11:24:02.490Z,56
2016-02-04T11:25:02.368Z,84
2016-02-04T11:26:02.277Z,164
2016-02-04T11:27:02.390Z,160
2016-02-04T11:28:02.159Z,152
2016-02-04T11:29:02.098Z,188
2016-02-04T11:30:02.039Z,136
2016-02-04T11:31:02.151Z,88
2016-02-04T11:32:01.971Z,60
2016-02-04T11:33:01.896Z,44
2016-02-04T11:34:01.836Z,40
2016-02-04T11:35:01.745Z,44
2016-02-04T11:36:01.701Z,44
2016-02-04T11:37:01.626Z,44
2016-02-04T11:38:01.581Z,140
2016-02-04T11:39:01.538Z,60
2016-02-04T11:40:01.478Z,208
2016-02-04T11:41:01.418Z,100
2016-02-04T11:42:01.374Z,76
2016-02-04T11:43:01.329Z,60
2016-02-04T11:44:01.275Z,88
2016-02-04T11:45:01.417Z,152
2016-02-04T11:46:00.389Z,96
2016-02-04T11:47:01.080Z,80
2016-02-04T11:48:00.988Z,136
2016-02-04T11:49:00.975Z,84
2016-02-04T11:50:00.884Z,84
2016-02-04T11:51:00.827Z,76
2016-02-04T11:52:00.768Z,60
2016-02-04T11:53:00.707Z,100
2016-02-04T11:54:00.663Z,60
2016-02-04T11:55:00.587Z,72
2016-02-04T11:56:00.593Z,56
2016-02-04T11:56:59.782Z,68
2016-02-04T11:58:00.442Z,56
2016-02-04T11:59:00.367Z,96
2016-02-04T12:00:00.337Z,100
2016-02-04T12:01:00.434Z,64
2016-02-04T12:02:00.250Z,56
2016-02-04T12:03:00.237Z,64
2016-02-04T12:04:00.162Z,64
2016-02-04T12:05:00.040Z,76
2016-02-04T12:06:00.027Z,84
2016-02-04T12:06:59.921Z,92
2016-02-04T12:07:59.907Z,104
2016-02-04T12:08:59.832Z,92
2016-02-04T12:09:59.818Z,72
2016-02-04T12:10:59.696Z,72
2016-02-04T12:11:59.653Z,72
2016-02-04T12:12:59.609Z,72
2016-02-04T12:13:59.549Z,68
2016-02-04T12:14:59.473Z,64
2016-02-04T12:15:59.430Z,64
2016-02-04T12:16:59.510Z,64
2016-02-04T12:17:59.279Z,60
2016-02-04T12:18:59.283Z,52
2016-02-04T12:19:59.222Z,48
2016-02-04T12:20:58.960Z,52
2016-02-04T12:21:59.071Z,44
2016-02-04T12:22:58.980Z,44
2016-02-04T12:23:58.954Z,44
2016-02-04T12:24:58.879Z,40
2016-02-04T12:25:58.835Z,40
2016-02-04T12:26:58.759Z,40
2016-02-04T12:27:58.699Z,40
2016-02-04T12:28:58.655Z,40
2016-02-04T12:29:58.579Z,40
2016-02-04T12:30:58.552Z,36
2016-02-04T12:31:58.539Z,36
2016-02-04T12:32:58.417Z,32
2016-02-04T12:33:58.373Z,28
2016-02-04T12:34:58.298Z,28
2016-02-04T12:35:58.271Z,24
2016-02-04T12:36:58.226Z,24
2016-02-04T12:37:58.120Z,24
2016-02-04T12:38:58.123Z,28
2016-02-04T12:39:58.000Z,28
2016-02-04T12:40:57.960Z,32
2016-02-04T12:41:57.885Z,32
2016-02-04T12:42:57.849Z,32
2016-02-04T12:43:57.805Z,32
2016-02-04T12:44:57.730Z,32
2016-02-04T12:45:57.655Z,28
2016-02-04T12:46:57.673Z,24
2016-02-04T12:47:57.598Z,24
2016-02-04T12:48:57.491Z,24
2016-02-04T12:49:57.431Z,24
2016-02-04T12:50:57.387Z,24
2016-02-04T12:51:57.406Z,24
2016-02-04T12:52:57.347Z,24
2016-02-04T12:53:57.271Z,24
2016-02-04T12:54:57.133Z,24
2016-02-04T12:55:57.347Z,20
2016-02-04T12:56:57.022Z,24
2016-02-04T12:57:56.977Z,20
2016-02-04T12:58:56.949Z,24
2016-02-04T12:59:56.857Z,20
2016-02-04T13:00:56.922Z,20
2016-02-04T13:01:56.768Z,20
2016-02-04T13:02:56.709Z,20
2016-02-04T13:03:56.665Z,20
2016-02-04T13:04:56.620Z,20
2016-02-04T13:05:56.513Z,24
2016-02-04T13:06:56.485Z,20
2016-02-04T13:07:56.427Z,20
2016-02-04T13:08:56.383Z,20
2016-02-04T13:09:56.166Z,20
2016-02-04T13:10:56.247Z,16
2016-02-04T13:11:56.188Z,16
2016-02-04T13:12:56.127Z,16
2016-02-04T13:13:56.052Z,16
2016-02-04T13:14:56.008Z,16
2016-02-04T13:15:55.933Z,16
2016-02-04T13:16:55.890Z,16
2016-02-04T13:17:55.861Z,16
2016-02-04T13:18:55.785Z,20
2016-02-04T13:19:55.725Z,16
2016-02-04T13:20:55.809Z,20
2016-02-04T13:21:55.593Z,16
2016-02-04T13:22:55.582Z,16
2016-02-04T13:23:55.491Z,16
2016-02-04T13:24:55.431Z,16
2016-02-04T13:25:55.370Z,16
2016-02-04T13:26:55.171Z,16
2016-02-04T13:27:55.268Z,20
2016-02-04T13:28:55.224Z,20
2016-02-04T13:29:54.477Z,20
2016-02-04T13:30:55.119Z,20
2016-02-04T13:31:55.013Z,20
2016-02-04T13:32:54.938Z,20
2016-02-04T13:33:54.910Z,16
2016-02-04T13:34:54.835Z,16
2016-02-04T13:35:54.791Z,16
2016-02-04T13:36:54.730Z,16
2016-02-04T13:37:54.671Z,16
2016-02-04T13:38:54.721Z,16
2016-02-04T13:39:54.555Z,16
2016-02-04T13:40:54.557Z,16
2016-02-04T13:41:54.447Z,16
2016-02-04T13:42:54.388Z,16
2016-02-04T13:43:54.391Z,16
2016-02-04T13:44:54.409Z,16
2016-02-04T13:45:54.349Z,16
2016-02-04T13:46:54.133Z,16
2016-02-04T13:47:54.120Z,16
2016-02-04T13:48:54.078Z,16
2016-02-04T13:49:54.017Z,16
2016-02-04T13:50:53.926Z,16
2016-02-04T13:51:53.866Z,16
2016-02-04T13:52:53.857Z,16
2016-02-04T13:53:53.765Z,12
2016-02-04T13:54:53.690Z,16
2016-02-04T13:55:53.698Z,16
2016-02-04T13:56:53.639Z,16
2016-02-04T13:57:53.564Z,16
2016-02-04T13:58:53.456Z,12
2016-02-04T13:59:53.428Z,12
2016-02-04T14:00:53.384Z,12
2016-02-04T14:01:53.293Z,16
2016-02-04T14:02:53.234Z,16
2016-02-04T14:03:53.205Z,16
2016-02-04T14:04:53.240Z,12
2016-02-04T14:05:53.132Z,12
2016-02-04T14:06:53.088Z,12
2016-02-04T14:07:52.950Z,12
2016-02-04T14:08:52.953Z,12
2016-02-04T14:09:52.815Z,12
2016-02-04T14:10:53.256Z,12
2016-02-04T14:11:52.758Z,12
2016-02-04T14:12:52.687Z,12
2016-02-04T14:13:52.610Z,12
2016-02-04T14:14:52.567Z,12
2016-02-04T14:15:52.475Z,12
2016-02-04T14:16:52.509Z,12
2016-02-04T14:17:52.419Z,12
2016-02-04T14:18:52.328Z,12
2016-02-04T14:19:52.318Z,8
2016-02-04T14:20:52.243Z,8
2016-02-04T14:21:52.214Z,8
2016-02-04T14:22:52.077Z,8
2016-02-04T14:23:52.095Z,8
2016-02-04T14:24:52.067Z,8
2016-02-04T14:25:51.994Z,8
2016-02-04T14:26:51.918Z,8
2016-02-04T14:27:51.829Z,8
2016-02-04T14:28:51.738Z,8
2016-02-04T14:29:51.740Z,8
2016-02-04T14:30:51.650Z,8
2016-02-04T14:31:51.559Z,8
2016-02-04T14:32:51.515Z,8
2016-02-04T14:33:51.456Z,4
2016-02-04T14:34:51.412Z,8
2016-02-04T14:35:51.320Z,8
2016-02-04T14:36:51.354Z,8
2016-02-04T14:37:51.060Z,8
2016-02-04T14:38:51.235Z,8
2016-02-04T14:39:51.098Z,8
2016-02-04T14:40:51.147Z,8
2016-02-04T14:41:50.994Z,8
2016-02-04T14:42:50.996Z,4
2016-02-04T14:43:50.891Z,4
2016-02-04T14:44:50.819Z,4
2016-02-04T14:45:50.807Z,8
2016-02-04T14:46:50.762Z,8
2016-02-04T14:47:50.531Z,4
2016-02-04T14:48:50.579Z,4
2016-02-04T14:49:50.582Z,4
2016-02-04T14:50:50.492Z,8
2016-02-04T14:51:50.588Z,4
2016-02-04T14:52:50.512Z,4
2016-02-04T14:53:50.312Z,4
2016-02-04T14:54:50.243Z,8
2016-02-04T14:55:50.262Z,4
2016-02-04T14:56:50.686Z,4
2016-02-04T14:57:50.080Z,4
2016-02-04T14:58:50.052Z,8
2016-02-04T14:59:50.008Z,8
2016-02-04T15:00:49.947Z,8
2016-02-04T15:01:49.841Z,4
2016-02-04T15:02:49.796Z,8
2016-02-04T15:03:49.721Z,8
2016-02-04T15:04:49.678Z,8
2016-02-04T15:05:49.603Z,4
2016-02-04T15:06:49.589Z,4
2016-02-04T15:07:49.483Z,8
2016-02-04T15:08:49.469Z,8
2016-02-04T15:09:49.410Z,8
2016-02-04T15:10:49.381Z,8
2016-02-04T15:11:49.246Z,8
2016-02-04T15:12:49.217Z,4
2016-02-04T15:13:49.128Z,8
2016-02-04T15:14:49.083Z,8
2016-02-04T15:15:49.071Z,8
2016-02-04T15:16:48.871Z,8
2016-02-04T15:17:48.937Z,4
2016-02-04T15:18:48.861Z,4
2016-02-04T15:19:48.789Z,4
2016-02-04T15:20:48.729Z,4
2016-02-04T15:21:48.702Z,4
2016-02-04T15:22:48.459Z,4
2016-02-04T15:23:48.572Z,4
2016-02-04T15:24:48.589Z,4
2016-02-04T15:25:48.436Z,4
2016-02-04T15:26:48.439Z,4
2016-02-04T15:27:48.333Z,8
2016-02-04T15:28:48.335Z,8
2016-02-04T15:29:48.197Z,4
2016-02-04T15:30:48.168Z,4
2016-02-04T15:31:48.203Z,8
2016-02-04T15:32:48.033Z,4
2016-02-04T15:33:47.989Z,4
2016-02-04T15:34:47.976Z,4
2016-02-04T15:35:47.885Z,4
2016-02-04T15:36:47.827Z,8
2016-02-04T15:37:47.735Z,4
2016-02-04T15:38:47.691Z,4
2016-02-04T15:39:47.631Z,4
2016-02-04T15:40:47.571Z,4
2016-02-04T15:41:47.528Z,4
2016-02-04T15:42:47.500Z,4
2016-02-04T15:43:47.267Z,4
2016-02-04T15:44:47.365Z,4
2016-02-04T15:45:47.321Z,0
2016-02-04T15:46:47.230Z,4
2016-02-04T15:47:47.264Z,4
2016-02-04T15:48:47.157Z,0
2016-02-04T15:49:47.067Z,0
2016-02-04T15:50:47.022Z,4
2016-02-04T15:51:46.931Z,4
2016-02-04T15:52:46.966Z,0
2016-02-04T15:53:46.830Z,0
2016-02-04T15:54:46.801Z,0
2016-02-04T15:55:46.693Z,4
2016-02-04T15:56:46.713Z,4
2016-02-04T15:57:46.591Z,0
2016-02-04T15:58:46.547Z,0
2016-02-04T15:59:46.518Z,0
2016-02-04T16:00:46.428Z,4
2016-02-04T16:05:50.879Z,0
2016-02-04T16:06:03.395Z,0
2016-02-04T16:07:03.351Z,0
2016-02-04T16:08:03.291Z,4
2016-02-04T16:09:03.232Z,4
2016-02-04T16:10:03.140Z,4
2016-02-04T16:11:03.096Z,0
2016-02-04T16:12:03.084Z,0
2016-02-04T16:13:02.976Z,0
2016-02-04T16:14:02.917Z,0
2016-02-04T16:15:02.857Z,0
2016-02-04T16:52:10.359Z,0
2016-02-04T16:53:10.316Z,0
2016-02-04T16:54:10.193Z,0
2016-02-04T16:55:10.180Z,0
2016-02-04T16:56:10.105Z,0
2016-02-04T16:57:09.905Z,0
2016-02-04T16:58:09.985Z,0
2016-02-04T16:59:09.910Z,0
2016-02-04T17:00:09.881Z,0
2016-02-04T17:01:09.806Z,0
2016-02-04T17:02:09.762Z,0
2016-02-04T17:03:09.671Z,0
2016-02-04T17:04:09.626Z,0
2016-02-04T17:05:09.582Z,0
2016-02-04T17:06:09.491Z,0
2016-02-04T17:07:09.478Z,0
2016-02-04T17:08:09.371Z,0
2016-02-04T17:09:09.313Z,0
2016-02-04T17:10:09.269Z,0
2016-02-04T17:11:09.182Z,0
2016-02-04T17:12:09.170Z,0
2016-02-04T17:13:09.078Z,0
2016-02-04T17:14:09.019Z,0
2016-02-04T17:15:08.990Z,0
2016-02-04T17:16:08.883Z,0
2016-02-04T17:17:08.854Z,0
2016-02-04T17:18:08.826Z,0
2016-02-04T17:19:08.751Z,0
2016-02-04T17:20:08.707Z,0
2016-02-04T17:21:08.619Z,0
2016-02-04T17:22:08.544Z,0
2016-02-04T17:23:08.533Z,0
2016-02-04T17:24:08.426Z,0
2016-02-04T17:25:08.381Z,0
2016-02-04T17:26:08.354Z,0
2016-02-04T17:27:08.247Z,0
2016-02-04T17:28:08.203Z,0
2016-02-04T17:29:08.130Z,0
2016-02-04T17:30:08.100Z,0
2016-02-04T17:31:08.056Z,0
2016-02-04T17:32:07.966Z,0
2016-02-04T17:33:07.906Z,0
2016-02-04T17:34:07.861Z,0
2016-02-04T17:35:07.785Z,0
2016-02-04T17:36:07.710Z,0
2016-02-04T17:37:07.666Z,0
2016-02-04T17:38:07.607Z,0
2016-02-04T17:39:07.546Z,0
2016-02-04T17:40:07.455Z,0
2016-02-04T17:41:07.427Z,0
2016-02-04T17:42:07.382Z,0
2016-02-04T17:43:07.323Z,0
2016-02-04T17:44:07.248Z,0
2016-02-04T17:45:07.187Z,0
2016-02-04T17:46:07.113Z,0
2016-02-04T17:47:07.069Z,0
2016-02-04T17:48:07.010Z,0
2016-02-04T17:49:06.950Z,0
2016-02-04T17:50:06.890Z,0
2016-02-04T17:51:06.830Z,0
2016-02-04T17:52:06.757Z,0
2016-02-04T17:53:06.714Z,0
2016-02-04T17:54:06.623Z,0
2016-02-04T17:55:06.611Z,0
2016-02-04T17:56:06.660Z,0
2016-02-04T17:57:06.475Z,0
2016-02-04T17:58:06.404Z,0
2016-02-04T17:59:06.343Z,0
2016-02-04T18:00:06.297Z,0
2016-02-04T18:01:06.271Z,0
2016-02-04T18:02:06.180Z,0
2016-02-04T18:03:06.136Z,0
2016-02-04T18:04:06.046Z,0
2016-02-04T18:05:06.001Z,0
2016-02-04T18:06:05.942Z,0
2016-02-04T18:07:05.866Z,0
2016-02-04T18:08:05.916Z,0
2016-02-04T18:09:05.746Z,0
2016-02-04T18:10:05.702Z,0
2016-02-04T18:11:05.659Z,0
2016-02-04T18:12:05.677Z,0
2016-02-04T18:13:04.805Z,0
2016-02-04T18:14:05.496Z,0
2016-02-04T18:15:05.482Z,0
2016-02-04T18:16:05.391Z,0
2016-02-04T18:17:05.332Z,0
2016-02-04T18:18:05.256Z,0
2016-02-04T18:19:05.212Z,0
2016-02-04T18:20:05.105Z,0
2016-02-04T18:21:05.064Z,0
2016-02-04T18:22:04.990Z,0
2016-02-04T18:23:04.945Z,0
2016-02-04T18:24:04.870Z,0
2016-02-04T18:25:04.841Z,0
2016-02-04T18:26:04.767Z,0
2016-02-04T18:27:04.706Z,0
2016-02-04T18:28:04.631Z,0
2016-02-04T18:29:04.556Z,0
2016-02-04T18:30:04.528Z,0
2016-02-04T18:31:04.470Z,0
2016-02-04T18:32:04.427Z,0
2016-02-04T18:33:04.339Z,0
2016-02-04T18:34:04.294Z,0
2016-02-04T18:35:04.297Z,0
2016-02-04T18:36:04.144Z,0
2016-02-04T18:37:04.130Z,0
2016-02-04T18:38:04.089Z,0
2016-02-04T18:39:03.998Z,0
2016-02-04T18:40:03.945Z,0
2016-02-04T18:41:06.934Z,0
2016-02-04T18:42:03.662Z,0
2016-02-04T18:43:04.791Z,0
2016-02-04T18:44:06.741Z,0
2016-02-04T18:45:03.731Z,0
2016-02-04T18:46:03.562Z,0
2016-02-04T18:47:03.549Z,0
2016-02-04T18:48:03.444Z,0
2016-02-04T18:49:03.368Z,0
2016-02-04T18:50:03.324Z,0
2016-02-04T18:51:03.224Z,0
2016-02-04T18:52:03.212Z,0
2016-02-04T18:53:03.127Z,0
2016-02-04T18:54:03.051Z,0
2016-02-04T18:55:03.085Z,0
2016-02-04T18:56:02.854Z,0
2016-02-04T18:57:02.903Z,0
2016-02-04T18:58:02.844Z,0
2016-02-04T18:59:02.800Z,0
2016-02-04T19:00:02.755Z,0
2016-02-04T19:01:02.649Z,0
2016-02-04T19:02:02.590Z,0
2016-02-04T19:03:02.531Z,0
2016-02-04T19:04:02.517Z,0
2016-02-04T19:05:02.395Z,0
2016-02-04T19:06:02.351Z,0
2016-02-04T19:07:02.293Z,0
2016-02-04T19:08:03.201Z,0
2016-02-04T19:09:02.235Z,0
2016-02-04T19:10:02.112Z,0
2016-02-04T19:11:02.054Z,0
2016-02-04T19:12:02.041Z,0
2016-02-04T19:13:01.918Z,0
2016-02-04T19:14:02.281Z,0
2016-02-04T19:15:01.956Z,0
2016-02-04T19:16:01.864Z,0
2016-02-04T19:17:01.726Z,0
2016-02-04T19:18:01.651Z,0
2016-02-04T19:19:01.607Z,0
2016-02-04T19:20:01.532Z,0
2016-02-04T19:21:01.472Z,0
2016-02-04T19:22:01.396Z,0
2016-02-04T19:23:01.355Z,0
2016-02-04T19:24:01.290Z,0
2016-02-04T19:25:01.262Z,0
2016-02-04T19:26:01.187Z,0
2016-02-04T19:27:01.106Z,0
2016-02-04T19:28:01.017Z,0
2016-02-04T19:29:01.008Z,0
2016-02-04T19:30:00.919Z,0
2016-02-04T19:31:01.004Z,0
2016-02-04T19:32:00.764Z,0
2016-02-04T19:33:00.683Z,0
2016-02-04T19:34:00.619Z,0
2016-02-04T19:35:00.539Z,0
2016-02-04T19:36:00.480Z,0
2016-02-04T19:37:00.448Z,0
2016-02-04T19:38:00.373Z,0
2016-02-04T19:39:00.327Z,0
2016-02-04T19:40:00.250Z,0
2016-02-04T19:41:00.204Z,0
2016-02-04T19:42:00.127Z,0
2016-02-04T19:43:00.068Z,0
2016-02-04T19:44:00.038Z,0
2016-02-04T19:44:59.978Z,0
2016-02-04T19:45:59.933Z,0
2016-02-04T19:46:59.810Z,0
2016-02-04T19:47:59.813Z,0
2016-02-04T19:48:59.752Z,0
2016-02-04T19:49:59.676Z,0
2016-02-04T19:50:59.570Z,0
2016-02-04T19:51:59.588Z,0
2016-02-04T19:52:59.513Z,0
2016-02-04T19:53:59.390Z,0
2016-02-04T19:54:59.362Z,0
2016-02-04T19:55:59.555Z,0
2016-02-04T19:56:59.419Z,0
2016-02-04T19:57:59.487Z,0
2016-02-04T19:58:59.537Z,0
2016-02-04T19:59:59.305Z,0
2016-02-04T20:00:59.167Z,0
2016-02-04T20:01:58.983Z,0
2016-02-04T20:02:58.895Z,0
2016-02-04T20:03:58.850Z,0
2016-02-04T20:04:58.758Z,0
2016-02-04T20:05:58.745Z,0
2016-02-04T20:06:58.702Z,0
2016-02-04T20:07:58.615Z,0
2016-02-04T20:08:58.554Z,0
2016-02-04T20:09:58.496Z,0
2016-02-04T20:10:58.455Z,0
2016-02-04T20:11:58.395Z,0
2016-02-04T20:12:58.288Z,0
2016-02-04T20:13:58.228Z,0
2016-02-04T20:14:58.215Z,0
2016-02-04T20:15:58.187Z,0
2016-02-04T20:16:58.143Z,0
2016-02-04T20:17:58.051Z,0
2016-02-04T20:18:58.025Z,0
2016-02-04T20:19:57.858Z,0
2016-02-04T20:20:57.876Z,0
2016-02-04T20:21:57.785Z,0
2016-02-04T20:22:57.775Z,0
2016-02-04T20:23:57.730Z,0
2016-02-04T20:24:57.599Z,0
2016-02-04T20:25:57.603Z,0
2016-02-04T20:26:57.559Z,0
2016-02-04T20:27:57.530Z,0
2016-02-04T20:28:57.425Z,0
2016-02-04T20:29:57.380Z,0
2016-02-04T20:30:57.257Z,0
2016-02-04T20:31:57.260Z,0
2016-02-04T20:32:57.138Z,0
2016-02-04T20:33:57.281Z,0
2016-02-04T20:34:57.174Z,0
2016-02-04T20:35:57.194Z,0
2016-02-04T20:36:57.055Z,0
2016-02-04T20:37:56.887Z,0
2016-02-04T20:38:56.920Z,0
2016-02-04T20:39:57.048Z,0
2016-02-04T20:40:56.661Z,0
2016-02-04T20:41:56.476Z,0
2016-02-04T20:42:56.556Z,0
2016-02-04T20:43:56.466Z,0
2016-02-04T20:44:56.405Z,0
2016-02-04T20:45:56.361Z,0
2016-02-04T20:46:56.396Z,0
2016-02-04T20:47:56.274Z,0
2016-02-04T20:48:56.183Z,0
2016-02-04T20:49:56.138Z,0
2016-02-04T20:50:56.126Z,0
2016-02-04T20:51:56.081Z,0
2016-02-04T20:52:55.959Z,0
2016-02-04T20:53:55.907Z,0
2016-02-04T20:54:55.832Z,0
2016-02-04T20:55:55.818Z,0
2016-02-04T20:56:55.773Z,0
2016-02-04T20:57:55.682Z,0
2016-02-04T20:58:55.654Z,0
2016-02-04T20:59:55.595Z,0
2016-02-04T21:00:55.565Z,0
2016-02-04T21:01:55.304Z,0
2016-02-04T21:02:55.462Z,0
2016-02-04T21:03:55.229Z,0
2016-02-04T21:04:55.278Z,0
2016-02-04T21:05:55.171Z,0
2016-02-04T21:06:55.143Z,0
2016-02-04T21:07:55.270Z,0
2016-02-04T21:08:55.085Z,0
2016-02-04T21:09:54.885Z,0
2016-02-04T21:10:54.903Z,0
2016-02-04T21:11:54.906Z,0
2016-02-04T21:12:54.816Z,0
2016-02-04T21:13:54.725Z,0
2016-02-04T21:14:54.684Z,0
2016-02-04T21:15:54.625Z,0
2016-02-04T21:16:54.565Z,0
2016-02-04T21:17:54.474Z,0
2016-02-04T21:18:54.449Z,0
2016-02-04T21:19:54.374Z,0
2016-02-04T21:20:54.346Z,0
2016-02-04T21:21:54.270Z,0
2016-02-04T21:22:54.194Z,0
2016-02-04T21:23:53.400Z,0
2016-02-04T21:24:54.090Z,0
2016-02-04T21:25:54.029Z,0
2016-02-04T21:26:54.000Z,0
2016-02-04T21:27:53.924Z,0
2016-02-04T21:28:53.865Z,0
2016-02-04T21:29:53.837Z,0
2016-02-04T21:30:53.761Z,0
2016-02-04T21:31:53.701Z,0
2016-02-04T21:32:53.674Z,0
2016-02-04T21:33:53.629Z,0
2016-02-04T21:34:53.632Z,0
2016-02-04T21:35:53.431Z,0
2016-02-04T21:36:53.387Z,0
2016-02-04T21:37:53.343Z,0
2016-02-04T21:38:53.393Z,0
2016-02-04T21:39:53.256Z,0
2016-02-04T21:40:53.166Z,0
2016-02-04T21:41:53.122Z,0
2016-02-04T21:42:53.031Z,0
2016-02-04T21:43:53.017Z,0
2016-02-04T21:44:52.957Z,0
2016-02-04T21:45:52.882Z,0
2016-02-04T21:46:52.854Z,0
2016-02-04T21:47:52.794Z,0
2016-02-04T21:48:52.702Z,0
2016-02-04T21:49:52.690Z,0
2016-02-04T21:50:52.646Z,0
2016-02-04T21:51:52.555Z,0
2016-02-04T21:52:52.495Z,0
2016-02-04T21:53:52.393Z,0
2016-02-04T21:54:52.366Z,0
2016-02-04T21:55:52.572Z,0
2016-02-04T21:56:52.247Z,0
2016-02-04T21:57:52.155Z,0
2016-02-04T21:58:52.189Z,0
2016-02-04T21:59:52.055Z,0
2016-02-04T22:00:52.152Z,0
2016-02-04T22:01:51.935Z,0
2016-02-04T22:02:51.907Z,0
2016-02-04T22:03:51.800Z,0
2016-02-04T22:04:51.742Z,0
2016-02-04T22:05:51.666Z,0
2016-02-04T22:06:51.638Z,0
2016-02-04T22:07:51.610Z,0
2016-02-04T22:08:51.518Z,0
2016-02-04T22:09:51.506Z,0
2016-02-04T22:10:51.415Z,0
2016-02-04T22:11:51.356Z,0
2016-02-04T22:12:51.299Z,0
2016-02-04T22:13:51.209Z,0
2016-02-04T22:14:51.429Z,0
2016-02-04T22:15:51.387Z,0
2016-02-04T22:16:51.045Z,0
2016-02-04T22:17:50.985Z,0
2016-02-04T22:18:50.972Z,0
2016-02-04T22:19:50.864Z,0
2016-02-04T22:20:50.821Z,0
2016-02-04T22:21:50.778Z,0
2016-02-04T22:22:50.717Z,0
2016-02-04T22:23:50.625Z,0
2016-02-04T22:24:51.164Z,0
2016-02-04T22:25:50.527Z,0
2016-02-04T22:26:50.858Z,0
2016-02-04T22:27:50.407Z,0
2016-02-04T22:28:50.629Z,0
2016-02-04T22:29:50.569Z,0
2016-02-04T22:30:50.087Z,0
2016-02-04T22:31:50.152Z,0
2016-02-04T22:32:50.094Z,0
2016-02-04T22:33:50.049Z,0
2016-02-04T22:34:50.036Z,0
2016-02-04T22:35:50.024Z,0
2016-02-04T22:36:49.901Z,0
2016-02-04T22:37:49.811Z,0
2016-02-04T22:38:49.798Z,0
2016-02-04T22:39:49.789Z,0
2016-02-04T22:40:49.698Z,0
2016-02-04T22:41:49.623Z,0
2016-02-04T22:42:49.579Z,0
2016-02-04T22:43:49.471Z,0
2016-02-04T22:44:49.397Z,0
2016-02-04T22:45:49.369Z,0
2016-02-04T22:46:49.341Z,0
2016-02-04T22:47:49.249Z,0
2016-02-04T22:48:49.189Z,0
2016-02-04T22:49:48.973Z,0
2016-02-04T22:50:49.117Z,0
2016-02-04T22:51:49.010Z,0
2016-02-04T22:52:49.012Z,0
2016-02-04T22:53:48.905Z,0
2016-02-04T22:54:48.861Z,0
2016-02-04T22:55:48.786Z,0
2016-02-04T22:56:48.741Z,0
2016-02-04T22:57:48.653Z,0
2016-02-04T22:58:48.624Z,0
2016-02-04T22:59:48.549Z,0
2016-02-04T23:00:48.474Z,0
2016-02-04T23:01:48.429Z,0
2016-02-04T23:02:48.369Z,0
2016-02-04T23:03:48.138Z,0
2016-02-04T23:04:48.250Z,0
2016-02-04T23:05:48.206Z,0
2016-02-04T23:06:48.130Z,0
2016-02-04T23:07:48.102Z,0
2016-02-04T23:08:48.058Z,0
2016-02-04T23:09:47.966Z,0
2016-02-04T23:10:47.907Z,0
2016-02-04T23:11:47.847Z,0
2016-02-04T23:12:47.834Z,0
2016-02-04T23:13:47.743Z,0
2016-02-04T23:14:47.730Z,0
2016-02-04T23:15:47.623Z,0
2016-02-04T23:16:47.580Z,0
2016-02-04T23:17:47.554Z,0
2016-02-04T23:18:47.447Z,0
2016-02-04T23:19:47.402Z,0
2016-02-04T23:20:47.374Z,0
2016-02-04T23:21:47.315Z,0
2016-02-04T23:22:47.223Z,0
2016-02-04T23:23:47.210Z,0
2016-02-04T23:24:47.415Z,0
2016-02-04T23:25:47.044Z,0
2016-02-04T23:26:46.968Z,0
2016-02-04T23:27:46.924Z,0
2016-02-04T23:28:46.879Z,0
2016-02-04T23:29:46.853Z,0
2016-02-04T23:30:46.762Z,0
2016-02-04T23:31:46.718Z,0
2016-02-04T23:32:46.627Z,0
2016-02-04T23:33:46.583Z,0
2016-02-04T23:34:46.523Z,0
2016-02-04T23:35:46.447Z,0
2016-02-04T23:36:46.419Z,0
2016-02-04T23:37:46.376Z,0
2016-02-04T23:38:46.332Z,0
2016-02-04T23:39:46.240Z,0
2016-02-04T23:40:46.181Z,0
2016-02-04T23:41:46.167Z,0
2016-02-04T23:42:46.172Z,0
2016-02-04T23:43:46.002Z,0
2016-02-04T23:44:45.989Z,0
2016-02-04T23:45:45.934Z,0
2016-02-04T23:46:45.875Z,0
2016-02-04T23:47:45.800Z,0
2016-02-04T23:48:45.756Z,0
2016-02-04T23:49:45.726Z,0
2016-02-04T23:50:45.620Z,0
2016-02-04T23:51:45.577Z,0
2016-02-04T23:52:45.485Z,0
2016-02-04T23:53:45.348Z,0
2016-02-04T23:54:45.256Z,0
2016-02-04T23:55:45.171Z,0
2016-02-04T23:56:45.267Z,0
2016-02-04T23:57:45.238Z,0
2016-02-04T23:58:44.444Z,0
2016-02-04T23:59:45.086Z,0
